Time;durP1;ratioP1;P1;durP2;ratioP2;P2;SDS_P1;SDS_P2;PMS_P1;PMS_P2;Temp;Humidity;BMP_temperature;BMP_pressure;BME280_temperature;BME280_humidity;BME280_pressure;Samples;Min_cycle;Max_cycle;Signal;HPM_P1;HPM_P2
2022/07/16 00:02:49;;;;;;;4.97;4.20;;;16.20;55.10;;;;;;4987889;28;20228;-63
2022/07/16 00:05:15;;;;;;;10.10;4.67;;;16.10;55.30;;;;;;4984679;28;20439;-62
2022/07/16 00:07:41;;;;;;;4.53;3.80;;;16.00;55.30;;;;;;4990694;28;20176;-62
2022/07/16 00:10:07;;;;;;;5.03;4.00;;;16.00;55.60;;;;;;4992727;28;20249;-62
2022/07/16 00:12:33;;;;;;;5.10;4.40;;;15.90;55.80;;;;;;4987380;28;20220;-62
2022/07/16 00:14:58;;;;;;;4.50;4.10;;;15.90;56.00;;;;;;4988030;28;20467;-62
2022/07/16 00:17:24;;;;;;;7.30;4.20;;;15.90;56.30;;;;;;4992506;28;20197;-62
2022/07/16 00:19:50;;;;;;;7.00;4.37;;;15.90;56.50;;;;;;4981247;28;20224;-62
2022/07/16 00:22:15;;;;;;;9.83;4.27;;;15.90;56.70;;;;;;4988278;28;20177;-62
2022/07/16 00:24:41;;;;;;;9.00;4.73;;;15.90;56.80;;;;;;4989575;28;20263;-62
2022/07/16 00:27:07;;;;;;;4.20;3.80;;;15.80;56.90;;;;;;4986161;28;20199;-62
2022/07/16 00:29:32;;;;;;;6.40;3.90;;;15.70;56.90;;;;;;4993594;28;20346;-62
2022/07/16 00:31:58;;;;;;;5.13;3.90;;;15.70;57.00;;;;;;4989200;28;20216;-62
2022/07/16 00:34:24;;;;;;;8.33;3.80;;;15.60;56.90;;;;;;4991678;28;20542;-62
2022/07/16 00:36:49;;;;;;;7.93;4.40;;;15.60;57.10;;;;;;4987288;28;20702;-62
2022/07/16 00:39:16;;;;;;;6.13;4.30;;;15.60;57.30;;;;;;4979169;28;20177;-62
2022/07/16 00:41:43;;;;;;;13.50;4.40;;;15.60;57.50;;;;;;4989045;28;20180;-63
2022/07/16 00:44:11;;;;;;;4.20;3.80;;;15.60;57.30;;;;;;4990605;28;20442;-62
2022/07/16 00:46:38;;;;;;;4.33;3.93;;;15.60;57.30;;;;;;4991101;28;21048;-62
2022/07/16 00:49:05;;;;;;;5.00;3.93;;;15.60;57.30;;;;;;4988206;28;20821;-62
2022/07/16 00:51:31;;;;;;;5.07;4.23;;;15.60;57.40;;;;;;4989111;28;20452;-62
2022/07/16 00:53:57;;;;;;;5.77;3.93;;;15.50;57.40;;;;;;4989045;28;20447;-62
2022/07/16 00:56:24;;;;;;;6.93;4.40;;;15.50;57.30;;;;;;4986724;28;20456;-62
2022/07/16 00:58:50;;;;;;;6.80;4.27;;;15.40;57.50;;;;;;4983504;28;20201;-62
2022/07/16 01:01:16;;;;;;;4.80;4.40;;;15.40;57.70;;;;;;4991158;28;20443;-62
2022/07/16 01:03:44;;;;;;;7.23;4.57;;;15.30;58.00;;;;;;4993236;28;20414;-62
2022/07/16 01:06:11;;;;;;;7.93;4.93;;;15.20;58.30;;;;;;4989184;28;20471;-62
2022/07/16 01:08:40;;;;;;;8.93;4.60;;;15.20;58.70;;;;;;4991517;28;20431;-62
2022/07/16 01:11:07;;;;;;;5.63;4.20;;;15.10;58.80;;;;;;4984426;28;20456;-62
2022/07/16 01:13:34;;;;;;;5.70;4.20;;;15.10;59.00;;;;;;4990883;28;20494;-62
2022/07/16 01:16:00;;;;;;;5.73;4.47;;;15.00;59.10;;;;;;4986967;28;20456;-62
2022/07/16 01:18:26;;;;;;;7.00;4.37;;;15.00;59.40;;;;;;4992364;28;20411;-62
2022/07/16 01:20:52;;;;;;;7.37;4.43;;;14.90;59.30;;;;;;4989205;28;20219;-62
2022/07/16 01:23:22;;;;;;;4.33;3.87;;;14.90;59.60;;;;;;4989465;28;20181;-62
2022/07/16 01:25:47;;;;;;;6.07;4.40;;;14.90;59.60;;;;;;4981697;28;20209;-62
2022/07/16 01:28:14;;;;;;;7.80;4.53;;;14.90;59.50;;;;;;4986826;28;20502;-62
2022/07/16 01:30:40;;;;;;;9.03;4.77;;;14.90;59.70;;;;;;4988481;28;20178;-62
2022/07/16 01:33:40;;;;;;;6.33;4.90;;;14.90;59.80;;;;;;4991221;28;20835;-62
2022/07/16 01:36:09;;;;;;;8.10;4.30;;;14.90;60.00;;;;;;4957963;28;20567;-62
2022/07/16 01:38:40;;;;;;;4.53;4.13;;;14.90;60.10;;;;;;4982304;28;20462;-62
2022/07/16 01:41:06;;;;;;;10.53;4.43;;;14.90;60.30;;;;;;4983351;28;20436;-62
2022/07/16 01:43:32;;;;;;;5.10;4.60;;;14.90;60.50;;;;;;4983783;28;20432;-61
2022/07/16 01:45:58;;;;;;;8.60;4.70;;;14.80;60.50;;;;;;4980324;28;20213;-62
2022/07/16 01:48:25;;;;;;;6.53;4.67;;;14.80;60.60;;;;;;4990208;28;20559;-62
2022/07/16 01:50:51;;;;;;;9.07;4.87;;;14.80;60.60;;;;;;4989457;28;20542;-62
2022/07/16 01:53:17;;;;;;;8.00;4.67;;;14.70;60.50;;;;;;4991944;28;20459;-62
2022/07/16 01:55:43;;;;;;;5.00;4.50;;;14.70;61.00;;;;;;4985002;28;20452;-62
2022/07/16 01:58:11;;;;;;;5.60;4.50;;;14.60;61.00;;;;;;4991471;28;20503;-62
2022/07/16 02:00:40;;;;;;;5.73;4.30;;;14.60;61.30;;;;;;4987839;28;20496;-62
2022/07/16 02:03:06;;;;;;;4.80;4.30;;;14.50;61.60;;;;;;4984157;28;20451;-62
2022/07/16 02:05:32;;;;;;;7.23;5.00;;;14.50;62.00;;;;;;4986255;28;20460;-62
2022/07/16 02:07:58;;;;;;;5.10;4.60;;;14.50;63.00;;;;;;4985809;28;20445;-62
2022/07/16 02:10:23;;;;;;;10.13;4.47;;;14.40;62.50;;;;;;4983503;28;20597;-62
2022/07/16 02:12:49;;;;;;;6.20;4.80;;;14.40;62.80;;;;;;4982178;28;20341;-62
2022/07/16 02:15:15;;;;;;;6.30;4.53;;;14.30;62.90;;;;;;4988828;28;20756;-62
2022/07/16 02:17:41;;;;;;;10.13;4.93;;;14.30;63.10;;;;;;4990210;28;20526;-62
2022/07/16 02:20:08;;;;;;;7.10;4.73;;;14.20;62.90;;;;;;4973645;28;20236;-62
2022/07/16 02:22:35;;;;;;;6.27;5.00;;;14.20;63.50;;;;;;4982173;28;20177;-62
2022/07/16 02:25:01;;;;;;;7.00;4.80;;;14.10;63.60;;;;;;4986156;28;20535;-62
2022/07/16 02:27:27;;;;;;;7.47;5.17;;;14.10;64.20;;;;;;4979492;28;20562;-62
2022/07/16 02:29:53;;;;;;;7.53;4.97;;;14.10;64.60;;;;;;4993669;28;20829;-62
2022/07/16 02:32:18;;;;;;;10.93;5.57;;;14.00;64.50;;;;;;4987604;28;20236;-62
2022/07/16 02:34:44;;;;;;;6.43;4.90;;;14.00;64.50;;;;;;4986052;28;20253;-62
2022/07/16 02:37:09;;;;;;;5.30;4.43;;;14.00;64.90;;;;;;4978492;28;20276;-62
2022/07/16 02:39:35;;;;;;;10.53;5.10;;;13.90;65.10;;;;;;4983705;28;20264;-62
2022/07/16 02:42:01;;;;;;;5.17;4.63;;;13.90;65.20;;;;;;4980988;28;20244;-62
2022/07/16 02:44:26;;;;;;;6.87;4.73;;;13.90;65.70;;;;;;4990287;28;20300;-62
2022/07/16 02:46:52;;;;;;;6.80;5.00;;;13.80;66.30;;;;;;4974993;28;20209;-62
2022/07/16 02:49:18;;;;;;;5.90;5.00;;;13.80;66.40;;;;;;4991802;28;20227;-62
2022/07/16 02:51:44;;;;;;;5.83;5.10;;;13.80;66.60;;;;;;4985769;28;20782;-61
2022/07/16 02:54:09;;;;;;;5.77;5.23;;;13.80;66.80;;;;;;4982562;28;20181;-62
2022/07/16 02:56:35;;;;;;;6.93;4.50;;;13.80;66.70;;;;;;4984577;28;20204;-62
2022/07/16 02:59:01;;;;;;;6.10;5.10;;;13.70;67.00;;;;;;4980911;28;20476;-62
2022/07/16 03:01:26;;;;;;;7.60;4.67;;;13.70;67.20;;;;;;4985005;28;20276;-62
2022/07/16 03:03:52;;;;;;;6.73;5.17;;;13.70;67.50;;;;;;4990209;28;20544;-61
2022/07/16 03:06:18;;;;;;;6.30;5.03;;;13.70;67.60;;;;;;4987470;28;20211;-62
2022/07/16 03:08:44;;;;;;;8.90;5.50;;;13.70;67.60;;;;;;4989299;28;20199;-62
2022/07/16 03:11:09;;;;;;;6.17;5.00;;;13.60;67.70;;;;;;4982642;28;20788;-62
2022/07/16 03:13:35;;;;;;;6.70;5.20;;;13.60;68.00;;;;;;4987915;28;21024;-62
2022/07/16 03:16:01;;;;;;;6.60;5.40;;;13.60;67.90;;;;;;4983366;28;20193;-62
2022/07/16 03:18:27;;;;;;;6.10;4.90;;;13.60;67.60;;;;;;4988854;28;20803;-62
2022/07/16 03:20:52;;;;;;;8.73;5.13;;;13.50;67.50;;;;;;4987680;28;20177;-62
2022/07/16 03:23:18;;;;;;;8.63;4.70;;;13.50;67.60;;;;;;4984222;28;20177;-62
2022/07/16 03:25:44;;;;;;;5.63;5.00;;;13.40;67.80;;;;;;4985169;28;20205;-62
2022/07/16 03:28:10;;;;;;;6.93;5.07;;;13.40;68.60;;;;;;4986221;28;20188;-61
2022/07/16 03:30:36;;;;;;;6.70;4.90;;;13.40;68.60;;;;;;4987656;28;20272;-62
2022/07/16 03:33:02;;;;;;;5.50;5.00;;;13.30;68.90;;;;;;4984947;28;20552;-61
2022/07/16 03:35:29;;;;;;;9.47;5.40;;;13.30;69.00;;;;;;4985412;28;20768;-62
2022/07/16 03:40:39;;;;;;;6.10;5.53;;;13.20;69.70;;;;;;4980806;28;20431;-62
2022/07/16 03:43:05;;;;;;;6.73;6.00;;;13.20;70.80;;;;;;4982342;28;20452;-61
2022/07/16 03:45:31;;;;;;;5.70;5.10;;;13.10;71.10;;;;;;4986175;28;20193;-61
2022/07/16 03:47:57;;;;;;;8.07;5.93;;;13.10;71.70;;;;;;4989081;28;20761;-62
2022/07/16 03:50:23;;;;;;;8.10;6.50;;;13.10;72.00;;;;;;4986839;28;20187;-61
2022/07/16 03:52:48;;;;;;;7.70;5.83;;;13.10;72.00;;;;;;4984976;28;20903;-61
2022/07/16 03:55:14;;;;;;;7.73;5.60;;;13.10;71.80;;;;;;4986688;28;20223;-62
2022/07/16 03:57:41;;;;;;;9.20;5.70;;;13.10;71.70;;;;;;4984786;28;20283;-62
2022/07/16 04:00:08;;;;;;;12.67;5.57;;;13.10;72.10;;;;;;4988378;28;20181;-62
2022/07/16 04:02:33;;;;;;;6.67;5.70;;;13.10;72.30;;;;;;4990814;28;20853;-62
2022/07/16 04:04:59;;;;;;;5.60;4.93;;;13.10;72.30;;;;;;4984627;28;20464;-62
2022/07/16 04:07:25;;;;;;;8.77;5.87;;;13.10;72.40;;;;;;4984894;28;20270;-62
2022/07/16 04:09:51;;;;;;;8.37;5.30;;;13.10;72.60;;;;;;4988626;28;20205;-62
2022/07/16 04:12:16;;;;;;;8.47;6.97;;;13.10;72.90;;;;;;4985476;28;20508;-62
2022/07/16 04:14:42;;;;;;;9.17;5.80;;;13.10;73.20;;;;;;4987966;28;20207;-62
2022/07/16 04:17:08;;;;;;;6.67;5.53;;;13.10;73.60;;;;;;4978718;28;20212;-61
2022/07/16 04:19:33;;;;;;;6.20;5.60;;;13.10;73.60;;;;;;5003194;28;20181;-62
2022/07/16 04:21:59;;;;;;;8.50;5.63;;;13.10;73.90;;;;;;4985794;28;20213;-62
2022/07/16 04:24:24;;;;;;;6.47;5.50;;;13.10;73.90;;;;;;4986267;28;20181;-61
2022/07/16 04:26:50;;;;;;;7.77;5.90;;;13.10;74.80;;;;;;4984629;28;20197;-61
2022/07/16 04:29:16;;;;;;;6.60;5.80;;;13.10;73.90;;;;;;4988778;28;20185;-61
2022/07/16 04:31:41;;;;;;;6.07;5.40;;;13.20;74.30;;;;;;4986751;28;20820;-62
2022/07/16 04:34:07;;;;;;;9.93;5.80;;;13.20;74.40;;;;;;4985787;28;20197;-62
2022/07/16 04:36:32;;;;;;;6.20;5.60;;;13.20;75.30;;;;;;4986909;28;20613;-62
2022/07/16 04:38:58;;;;;;;10.20;5.87;;;13.20;74.40;;;;;;4987043;28;20277;-61
2022/07/16 04:41:24;;;;;;;6.73;5.50;;;13.20;74.20;;;;;;4985286;28;20193;-62
2022/07/16 04:43:50;;;;;;;6.33;5.13;;;13.20;73.60;;;;;;4986028;28;20227;-62
2022/07/16 04:46:16;;;;;;;12.07;6.77;;;13.20;73.00;;;;;;4987007;28;21142;-62
2022/07/16 04:48:42;;;;;;;6.47;5.80;;;13.20;73.40;;;;;;4986519;28;20498;-62
2022/07/16 04:51:07;;;;;;;9.60;6.37;;;13.20;74.40;;;;;;4984554;28;20263;-62
2022/07/16 04:53:35;;;;;;;6.13;5.53;;;13.20;75.30;;;;;;4989350;28;20177;-62
2022/07/16 04:56:00;;;;;;;6.20;4.93;;;13.20;74.70;;;;;;4981772;28;20202;-62
2022/07/16 04:58:26;;;;;;;8.07;5.67;;;13.30;74.20;;;;;;4982578;28;20440;-62
2022/07/16 05:00:52;;;;;;;11.70;8.27;;;13.30;74.60;;;;;;4983952;28;20166;-62
2022/07/16 05:03:17;;;;;;;9.47;7.90;;;13.30;74.70;;;;;;4991859;28;20197;-62
2022/07/16 05:05:43;;;;;;;10.30;6.60;;;13.40;74.70;;;;;;4999911;28;20815;-62
2022/07/16 05:08:09;;;;;;;7.63;5.83;;;13.40;74.90;;;;;;4987630;28;20193;-62
2022/07/16 05:10:35;;;;;;;8.90;6.60;;;13.40;74.20;;;;;;4989572;28;20185;-62
2022/07/16 05:13:02;;;;;;;7.07;5.70;;;13.40;74.60;;;;;;4979543;28;20518;-62
2022/07/16 05:15:29;;;;;;;7.37;6.23;;;13.50;74.80;;;;;;4995588;28;21143;-62
2022/07/16 05:17:54;;;;;;;7.43;5.80;;;13.60;73.50;;;;;;4995456;28;20530;-62
2022/07/16 05:20:20;;;;;;;10.63;6.37;;;13.60;72.80;;;;;;5001153;28;20512;-62
2022/07/16 05:22:46;;;;;;;11.77;6.27;;;13.70;73.50;;;;;;4992833;28;20213;-62
2022/07/16 05:25:12;;;;;;;7.23;5.97;;;13.70;74.00;;;;;;4990080;28;20193;-61
2022/07/16 05:27:38;;;;;;;11.43;6.17;;;13.80;72.90;;;;;;4990664;28;20196;-61
2022/07/16 05:30:04;;;;;;;8.07;7.10;;;13.90;72.00;;;;;;4991218;28;20204;-62
2022/07/16 05:32:30;;;;;;;12.10;7.37;;;13.90;71.50;;;;;;4988239;28;20502;-62
2022/07/16 05:34:56;;;;;;;12.97;7.47;;;13.90;72.10;;;;;;4986633;28;20428;-61
2022/07/16 05:37:22;;;;;;;17.80;8.90;;;14.00;72.70;;;;;;4992406;28;20600;-62
2022/07/16 05:39:47;;;;;;;12.53;7.50;;;14.10;74.10;;;;;;4992554;28;20205;-61
2022/07/16 05:42:13;;;;;;;12.27;7.50;;;14.20;72.50;;;;;;4989250;28;20173;-62
2022/07/16 05:44:39;;;;;;;8.97;7.17;;;14.20;72.60;;;;;;4987231;28;20258;-61
2022/07/16 05:47:05;;;;;;;7.70;6.27;;;14.30;73.10;;;;;;4991937;28;20209;-61
2022/07/16 05:49:31;;;;;;;8.53;6.53;;;14.40;71.90;;;;;;4992825;28;20429;-62
2022/07/16 05:51:57;;;;;;;8.53;7.23;;;14.40;70.80;;;;;;4987660;28;20213;-61
2022/07/16 05:54:23;;;;;;;12.77;7.30;;;14.50;70.80;;;;;;4990198;28;20783;-62
2022/07/16 05:56:48;;;;;;;13.23;7.40;;;14.60;70.50;;;;;;4990864;28;20461;-61
2022/07/16 05:59:15;;;;;;;11.43;8.20;;;14.60;69.80;;;;;;4988028;28;20180;-61
2022/07/16 06:01:41;;;;;;;9.40;7.53;;;14.70;69.20;;;;;;4993622;28;20264;-61
2022/07/16 06:04:06;;;;;;;9.23;7.37;;;14.80;69.30;;;;;;4984281;28;20633;-61
2022/07/16 06:06:32;;;;;;;16.90;8.50;;;14.90;69.80;;;;;;4996513;28;20763;-59
2022/07/16 06:08:58;;;;;;;8.90;6.73;;;15.00;69.60;;;;;;4983411;28;20573;-62
2022/07/16 06:11:23;;;;;;;10.90;8.20;;;15.10;70.10;;;;;;4988758;28;20588;-62
2022/07/16 06:13:49;;;;;;;9.07;6.70;;;15.20;70.40;;;;;;4990082;28;20173;-61
2022/07/16 06:16:14;;;;;;;11.40;7.93;;;15.30;69.80;;;;;;4986015;28;20263;-62
2022/07/16 06:18:41;;;;;;;11.13;7.50;;;15.40;69.40;;;;;;4985831;28;20181;-62
2022/07/16 06:21:07;;;;;;;13.10;9.37;;;15.50;68.40;;;;;;4986293;28;20199;-62
2022/07/16 06:23:34;;;;;;;13.10;7.70;;;15.60;68.10;;;;;;4989178;28;20576;-62
2022/07/16 06:25:59;;;;;;;15.80;8.80;;;15.70;68.10;;;;;;4987097;28;20448;-63
2022/07/16 06:28:25;;;;;;;13.73;8.07;;;15.70;67.50;;;;;;4982853;28;20494;-62
2022/07/16 06:30:51;;;;;;;18.03;8.57;;;15.80;67.30;;;;;;4993637;28;20177;-62
2022/07/16 06:33:17;;;;;;;12.43;8.00;;;15.90;66.20;;;;;;4978228;28;20555;-61
2022/07/16 06:35:42;;;;;;;8.00;6.50;;;15.90;66.50;;;;;;4987159;28;20197;-60
2022/07/16 06:38:08;;;;;;;13.77;7.47;;;16.10;66.60;;;;;;4986486;28;20674;-61
2022/07/16 06:40:34;;;;;;;16.10;7.20;;;16.20;65.40;;;;;;4976657;28;20209;-60
2022/07/16 06:43:00;;;;;;;8.27;6.70;;;16.30;63.80;;;;;;4974718;28;20185;-61
2022/07/16 06:45:26;;;;;;;7.60;6.30;;;16.50;64.10;;;;;;4981914;28;20991;-61
2022/07/16 06:47:52;;;;;;;11.53;6.50;;;16.60;62.60;;;;;;4988004;28;20205;-61
2022/07/16 06:50:18;;;;;;;12.93;6.80;;;16.70;62.30;;;;;;4982435;28;20896;-62
2022/07/16 06:52:44;;;;;;;11.43;6.10;;;16.80;62.00;;;;;;4985515;28;20209;-62
2022/07/16 06:55:10;;;;;;;16.13;6.70;;;16.90;61.60;;;;;;4987020;28;20185;-62
2022/07/16 06:57:35;;;;;;;10.40;5.80;;;17.00;60.20;;;;;;4985718;28;20430;-61
2022/07/16 07:00:01;;;;;;;7.83;5.90;;;17.10;60.50;;;;;;4983561;28;20239;-62
2022/07/16 07:02:27;;;;;;;7.90;6.00;;;17.20;59.30;;;;;;4983146;28;20719;-61
2022/07/16 07:04:52;;;;;;;9.73;5.70;;;17.30;58.90;;;;;;4986081;28;20183;-61
2022/07/16 07:07:18;;;;;;;8.17;4.73;;;17.40;59.00;;;;;;4985948;28;20201;-61
2022/07/16 07:09:43;;;;;;;12.47;5.77;;;17.60;58.50;;;;;;4989039;28;20189;-61
2022/07/16 07:12:09;;;;;;;10.50;5.77;;;17.70;57.60;;;;;;4981697;28;20328;-56
2022/07/16 07:14:35;;;;;;;13.93;5.83;;;17.70;56.50;;;;;;4979159;28;20614;-58
2022/07/16 07:17:01;;;;;;;12.20;6.30;;;17.90;56.10;;;;;;4972849;28;20201;-58
2022/07/16 07:19:26;;;;;;;9.50;5.17;;;18.00;55.60;;;;;;4978142;28;20208;-59
2022/07/16 07:21:52;;;;;;;7.97;4.40;;;18.20;55.40;;;;;;4978249;28;20910;-59
2022/07/16 07:24:17;;;;;;;6.20;4.83;;;18.40;55.00;;;;;;4977968;28;20189;-59
2022/07/16 07:26:43;;;;;;;9.63;5.70;;;18.50;53.90;;;;;;4980096;28;20213;-61
2022/07/16 07:29:09;;;;;;;8.03;4.67;;;18.70;53.60;;;;;;4981399;28;20663;-59
2022/07/16 07:31:34;;;;;;;6.50;4.90;;;18.70;53.70;;;;;;4980273;28;20209;-60
2022/07/16 07:34:00;;;;;;;7.00;4.50;;;18.90;53.70;;;;;;4984336;28;20606;-60
2022/07/16 07:36:25;;;;;;;7.40;4.60;;;19.00;53.20;;;;;;4978530;28;20605;-60
2022/07/16 07:38:51;;;;;;;8.03;4.70;;;19.10;52.80;;;;;;4983194;28;20177;-60
2022/07/16 07:41:17;;;;;;;11.67;4.60;;;19.30;52.50;;;;;;4979324;28;20217;-60
2022/07/16 07:43:42;;;;;;;4.50;4.10;;;19.40;52.50;;;;;;4985225;28;20747;-60
2022/07/16 07:46:08;;;;;;;7.33;3.90;;;19.50;51.10;;;;;;4983766;28;20720;-60
2022/07/16 07:48:34;;;;;;;7.23;4.37;;;19.70;50.90;;;;;;4978107;28;21939;-60
2022/07/16 07:51:00;;;;;;;6.30;4.10;;;19.90;50.80;;;;;;4978779;28;20631;-61
2022/07/16 07:53:26;;;;;;;6.40;4.43;;;20.10;50.30;;;;;;4974502;28;20192;-60
2022/07/16 07:55:51;;;;;;;5.53;3.70;;;20.30;49.50;;;;;;4979998;28;20503;-59
2022/07/16 07:58:17;;;;;;;7.27;3.70;;;20.50;49.00;;;;;;4982443;28;20193;-60
2022/07/16 08:00:43;;;;;;;5.17;4.07;;;20.60;48.80;;;;;;4983495;28;20680;-60
2022/07/16 08:03:09;;;;;;;4.40;4.00;;;20.70;48.80;;;;;;4978483;28;20185;-60
2022/07/16 08:05:36;;;;;;;6.40;4.10;;;20.80;48.80;;;;;;4985711;28;21179;-60
2022/07/16 08:08:02;;;;;;;4.30;3.90;;;20.90;48.70;;;;;;4980936;28;20253;-61
2022/07/16 08:10:28;;;;;;;5.47;3.90;;;21.00;48.30;;;;;;4966508;28;20439;-59
2022/07/16 08:12:53;;;;;;;5.73;3.80;;;21.10;47.80;;;;;;4971783;28;20525;-58
2022/07/16 08:15:19;;;;;;;9.50;4.30;;;21.10;47.00;;;;;;4967298;28;20464;-59
2022/07/16 08:17:45;;;;;;;4.93;4.00;;;21.10;47.30;;;;;;4968763;28;20185;-58
2022/07/16 08:20:13;;;;;;;9.43;4.23;;;21.10;47.50;;;;;;4974308;28;20192;-60
2022/07/16 08:22:39;;;;;;;6.03;3.67;;;21.20;47.50;;;;;;4971133;28;20441;-57
2022/07/16 08:27:50;;;;;;;10.10;3.90;;;21.40;47.40;;;;;;4974905;28;20482;-60
2022/07/16 08:30:16;;;;;;;6.30;3.77;;;21.50;47.20;;;;;;4977817;28;21159;-60
2022/07/16 08:32:42;;;;;;;5.53;3.83;;;21.60;46.60;;;;;;4983904;28;20220;-58
2022/07/16 08:35:08;;;;;;;7.60;3.33;;;21.80;46.20;;;;;;4980633;28;20439;-58
2022/07/16 08:37:39;;;;;;;4.10;3.80;;;21.90;45.90;;;;;;4979027;28;20189;-58
2022/07/16 08:40:08;;;;;;;4.10;3.47;;;22.00;46.10;;;;;;4983424;28;20210;-58
2022/07/16 08:42:35;;;;;;;6.57;4.13;;;22.10;45.70;;;;;;4987445;28;20954;-59
2022/07/16 08:45:03;;;;;;;6.40;3.77;;;22.10;45.40;;;;;;4972213;28;21237;-61
2022/07/16 08:47:30;;;;;;;10.93;3.73;;;22.10;45.40;;;;;;4974287;28;20469;-59
2022/07/16 08:50:00;;;;;;;6.40;3.60;;;22.10;44.00;;;;;;4979146;28;20452;-60
2022/07/16 08:52:28;;;;;;;4.33;3.50;;;22.10;44.10;;;;;;4977654;28;20551;-58
2022/07/16 08:54:55;;;;;;;5.30;3.63;;;22.10;44.00;;;;;;4972397;28;21204;-59
2022/07/16 08:57:22;;;;;;;6.73;4.10;;;22.20;43.50;;;;;;4973576;28;20531;-60
2022/07/16 08:59:49;;;;;;;7.40;3.90;;;22.20;43.00;;;;;;4974678;28;20552;-59
2022/07/16 09:02:15;;;;;;;4.10;3.70;;;22.20;43.80;;;;;;4972577;28;20475;-61
2022/07/16 09:04:44;;;;;;;9.43;4.33;;;22.30;43.60;;;;;;4973748;28;20467;-59
2022/07/16 09:07:17;;;;;;;5.67;3.70;;;22.40;43.60;;;;;;4974714;28;20304;-60
2022/07/16 09:09:47;;;;;;;6.03;3.23;;;22.30;42.40;;;;;;4973526;28;20428;-63
2022/07/16 09:12:50;;;;;;;5.97;3.60;;;22.30;42.60;;;;;;4974042;28;20471;-62
2022/07/16 09:15:28;;;;;;;5.67;3.33;;;22.30;43.00;;;;;;4974453;28;20440;-63
2022/07/16 09:18:23;;;;;;;6.20;3.67;;;22.50;43.50;;;;;;4972735;28;20936;-62
2022/07/16 09:20:55;;;;;;;6.93;3.70;;;22.80;43.00;;;;;;4971314;28;20515;-62
2022/07/16 09:23:24;;;;;;;5.63;4.00;;;23.00;43.30;;;;;;4977153;28;20440;-61
2022/07/16 09:25:55;;;;;;;3.90;3.50;;;23.20;43.00;;;;;;4971255;28;20468;-62
2022/07/16 09:28:23;;;;;;;7.23;3.43;;;23.40;42.80;;;;;;4975590;28;20456;-62
2022/07/16 09:30:49;;;;;;;3.83;3.10;;;23.50;41.10;;;;;;4975713;28;20436;-62
2022/07/16 09:33:20;;;;;;;5.30;3.33;;;23.50;40.20;;;;;;4977227;28;20459;-62
2022/07/16 09:35:48;;;;;;;5.43;3.70;;;23.50;40.40;;;;;;4958147;28;20345;-61
2022/07/16 09:38:14;;;;;;;4.77;3.23;;;23.50;39.70;;;;;;4962910;28;20991;-66
2022/07/16 09:40:48;;;;;;;5.00;3.83;;;23.50;40.30;;;;;;4970282;28;20440;-64
2022/07/16 09:43:13;;;;;;;5.00;3.27;;;23.60;39.60;;;;;;4970117;28;20437;-60
2022/07/16 09:45:40;;;;;;;4.50;3.57;;;23.50;39.40;;;;;;4972968;28;20463;-61
2022/07/16 09:48:28;;;;;;;5.00;3.23;;;23.60;40.70;;;;;;4977127;28;20195;-61
2022/07/16 09:50:56;;;;;;;4.93;3.90;;;23.80;41.20;;;;;;4984919;28;20424;-61
2022/07/16 09:53:27;;;;;;;6.40;3.77;;;24.00;40.60;;;;;;4988645;28;20463;-61
2022/07/16 09:56:06;;;;;;;3.50;3.17;;;24.10;40.10;;;;;;4987794;28;20527;-61
2022/07/16 09:58:33;;;;;;;5.80;3.50;;;24.20;39.20;;;;;;4980985;28;20489;-61
2022/07/16 10:01:00;;;;;;;5.00;3.90;;;24.30;38.70;;;;;;4985063;28;20432;-61
2022/07/16 10:03:27;;;;;;;5.43;3.53;;;24.40;38.70;;;;;;4984972;28;20523;-61
2022/07/16 10:05:52;;;;;;;5.53;3.60;;;24.50;38.80;;;;;;4981195;28;20452;-61
2022/07/16 10:08:19;;;;;;;4.40;3.20;;;24.60;38.40;;;;;;4987768;28;20436;-60
2022/07/16 10:10:45;;;;;;;7.43;3.37;;;24.70;38.60;;;;;;4989990;28;20185;-61
2022/07/16 10:13:12;;;;;;;7.17;3.53;;;24.80;38.00;;;;;;4985067;28;20466;-61
2022/07/16 10:15:39;;;;;;;5.47;3.57;;;24.90;38.00;;;;;;4984281;28;20436;-62
2022/07/16 10:18:34;;;;;;;4.23;3.43;;;25.10;37.60;;;;;;4988436;28;20437;-61
2022/07/16 10:21:02;;;;;;;4.83;2.90;;;25.20;35.90;;;;;;4984207;28;20482;-61
2022/07/16 10:23:29;;;;;;;5.80;3.40;;;25.30;36.30;;;;;;4987874;28;20567;-62
2022/07/16 10:25:59;;;;;;;10.37;3.53;;;25.40;37.30;;;;;;4988151;28;20466;-61
2022/07/16 10:28:39;;;;;;;7.27;3.63;;;25.50;37.00;;;;;;4983886;28;20443;-62
2022/07/16 10:31:32;;;;;;;5.37;3.57;;;25.70;37.00;;;;;;4984571;28;20492;-62
2022/07/16 10:34:13;;;;;;;8.90;3.20;;;25.70;36.10;;;;;;4981110;28;20434;-61
2022/07/16 10:36:48;;;;;;;6.50;3.40;;;25.70;36.90;;;;;;4990301;28;20439;-62
2022/07/16 10:39:15;;;;;;;5.77;3.70;;;25.90;38.00;;;;;;4986795;28;20451;-61
2022/07/16 10:41:56;;;;;;;4.80;3.00;;;26.00;37.40;;;;;;5002880;28;20428;-61
2022/07/16 10:44:47;;;;;;;4.70;3.00;;;26.20;36.20;;;;;;4975293;28;20427;-61
2022/07/16 10:47:13;;;;;;;8.23;2.90;;;26.30;33.70;;;;;;4964755;28;20542;-62
2022/07/16 10:49:39;;;;;;;6.57;3.30;;;26.30;33.90;;;;;;4975668;28;20950;-61
2022/07/16 10:52:06;;;;;;;5.20;2.87;;;26.40;34.40;;;;;;4979619;28;20509;-61
2022/07/16 10:54:35;;;;;;;5.63;3.00;;;26.50;34.20;;;;;;4974156;28;20909;-62
2022/07/16 10:57:11;;;;;;;4.80;2.80;;;26.50;34.00;;;;;;4984134;28;20466;-62
2022/07/16 10:59:42;;;;;;;3.80;2.73;;;26.60;31.90;;;;;;4988297;28;20428;-62
2022/07/16 11:02:10;;;;;;;3.73;2.60;;;26.50;33.70;;;;;;4982499;28;20431;-62
2022/07/16 11:04:37;;;;;;;2.80;2.30;;;26.60;31.70;;;;;;4981583;28;20435;-62
2022/07/16 11:07:07;;;;;;;2.63;2.40;;;26.50;29.90;;;;;;4982215;28;20550;-62
2022/07/16 11:09:37;;;;;;;2.80;2.60;;;26.40;30.40;;;;;;4987031;28;20501;-61
2022/07/16 11:12:29;;;;;;;2.97;2.50;;;26.40;29.90;;;;;;4988055;28;20459;-62
2022/07/16 11:14:57;;;;;;;3.77;2.13;;;26.40;30.00;;;;;;4981817;28;20438;-62
2022/07/16 11:17:26;;;;;;;5.50;2.50;;;26.50;30.00;;;;;;4990413;28;20444;-62
2022/07/16 11:19:57;;;;;;;3.00;2.30;;;26.50;30.30;;;;;;4980780;28;20424;-62
2022/07/16 11:22:29;;;;;;;3.40;2.63;;;26.60;29.40;;;;;;4983256;28;20439;-62
2022/07/16 11:24:55;;;;;;;4.20;2.53;;;26.60;29.90;;;;;;4985547;28;20949;-63
2022/07/16 11:27:31;;;;;;;2.50;2.30;;;26.70;29.60;;;;;;4983772;28;20917;-62
2022/07/16 11:30:02;;;;;;;4.43;2.43;;;26.80;30.90;;;;;;4984527;28;20435;-64
2022/07/16 11:32:28;;;;;;;4.10;2.20;;;26.90;29.60;;;;;;4986268;28;20467;-63
2022/07/16 11:34:54;;;;;;;2.57;2.27;;;26.90;29.20;;;;;;4984601;28;20478;-63
2022/07/16 11:37:21;;;;;;;3.83;2.87;;;26.80;28.60;;;;;;4986895;28;20443;-63
2022/07/16 11:39:46;;;;;;;4.23;3.13;;;26.90;30.40;;;;;;4983487;28;20443;-62
2022/07/16 11:42:13;;;;;;;3.20;2.70;;;27.00;30.70;;;;;;4988681;28;20200;-61
2022/07/16 11:44:40;;;;;;;4.00;2.90;;;27.20;30.00;;;;;;4981468;28;20212;-61
2022/07/16 11:47:09;;;;;;;4.27;3.20;;;27.40;31.00;;;;;;4986591;28;20459;-62
2022/07/16 11:49:40;;;;;;;3.33;2.90;;;27.40;30.60;;;;;;4987744;28;20267;-62
2022/07/16 11:52:21;;;;;;;2.80;2.60;;;27.40;30.00;;;;;;4985435;28;20200;-62
2022/07/16 11:54:48;;;;;;;5.10;2.80;;;27.50;30.90;;;;;;4984947;28;20188;-62
2022/07/16 11:57:14;;;;;;;6.70;3.00;;;27.70;30.60;;;;;;4984084;28;20220;-62
2022/07/16 11:59:52;;;;;;;3.20;2.47;;;27.90;30.10;;;;;;4986984;28;20546;-62
2022/07/16 12:02:23;;;;;;;3.30;3.00;;;28.00;29.70;;;;;;4979339;28;20322;-62
2022/07/16 12:04:59;;;;;;;2.60;2.40;;;28.10;29.80;;;;;;4985182;28;20199;-62
2022/07/16 12:07:25;;;;;;;2.83;2.50;;;28.00;29.70;;;;;;4982700;28;20204;-62
2022/07/16 12:09:53;;;;;;;3.00;2.50;;;27.90;28.10;;;;;;4991267;28;20694;-62
2022/07/16 12:12:39;;;;;;;10.47;2.90;;;27.90;29.20;;;;;;4976888;28;20290;-62
2022/07/16 12:15:07;;;;;;;2.93;2.50;;;28.00;29.40;;;;;;4986851;28;20184;-62
2022/07/16 12:17:38;;;;;;;2.87;2.67;;;28.20;30.00;;;;;;4983749;28;20179;-63
2022/07/16 12:20:21;;;;;;;3.03;2.63;;;28.30;30.00;;;;;;4980908;28;20192;-62
2022/07/16 12:22:46;;;;;;;3.90;3.00;;;28.40;29.70;;;;;;4981898;28;20340;-62
2022/07/16 12:25:16;;;;;;;4.00;2.40;;;28.50;29.40;;;;;;4985042;28;20304;-63
2022/07/16 12:27:50;;;;;;;2.77;2.57;;;28.70;30.40;;;;;;4977948;28;20808;-62
2022/07/16 12:30:16;;;;;;;6.50;2.60;;;28.90;29.70;;;;;;4981346;28;20180;-63
2022/07/16 12:32:52;;;;;;;2.77;2.20;;;29.20;29.60;;;;;;4986558;28;20208;-63
2022/07/16 12:35:55;;;;;;;2.50;2.17;;;29.40;29.00;;;;;;4988997;28;20863;-63
2022/07/16 12:38:39;;;;;;;3.60;2.22;;;29.50;29.10;;;;;;4983640;28;20176;-62
2022/07/16 12:41:21;;;;;;;3.13;2.20;;;29.70;29.80;;;;;;4987152;28;20180;-63
2022/07/16 12:43:55;;;;;;;4.05;2.33;;;29.80;29.40;;;;;;4985349;28;20180;-63
2022/07/16 12:46:24;;;;;;;2.95;2.72;;;29.90;29.30;;;;;;4976393;28;20194;-62
2022/07/16 12:48:53;;;;;;;2.75;2.20;;;30.10;29.30;;;;;;4976473;28;20188;-62
2022/07/16 12:51:21;;;;;;;3.30;2.60;;;30.10;28.30;;;;;;4984041;28;20623;-62
2022/07/16 12:53:48;;;;;;;4.18;2.65;;;30.20;28.50;;;;;;4986885;28;20173;-62
2022/07/16 12:58:58;;;;;;;3.50;2.65;;;30.30;27.30;;;;;;4987468;28;20281;-63